Time;durP1;ratioP1;P1;durP2;ratioP2;P2;SDS_P1;SDS_P2;PMS_P1;PMS_P2;Temp;Humidity;BMP_temperature;BMP_pressure;BME280_temperature;BME280_humidity;BME280_pressure;Samples;Min_cycle;Max_cycle;Signal;HPM_P1;HPM_P2
2022/08/14 00:06:59;;;;;;;6.20;4.13;;;;;;;23.87;66.64;101257.09;20955584;28;20041;-64
2022/08/14 00:17:22;;;;;;;7.45;5.05;;;;;;;23.84;66.17;101262.75;20954235;28;20566;-64
2022/08/14 00:27:43;;;;;;;7.68;3.97;;;;;;;23.79;67.16;101265.09;20955528;28;20052;-64
2022/08/14 00:38:09;;;;;;;5.35;4.20;;;;;;;23.75;67.18;101253.09;20949626;28;20041;-64
2022/08/14 00:48:31;;;;;;;9.00;3.70;;;;;;;23.81;67.15;101241.78;20949019;28;20409;-64
2022/08/14 00:58:55;;;;;;;4.78;3.60;;;;;;;23.60;68.13;101222.84;20948276;28;20417;-64
2022/08/14 01:09:23;;;;;;;8.85;4.55;;;;;;;23.65;67.86;101220.53;20972448;28;20109;-65
2022/08/14 01:30:26;;;;;;;9.35;4.20;;;;;;;23.75;67.72;101203.34;20962521;28;20559;-65
2022/08/14 01:40:48;;;;;;;6.32;4.25;;;;;;;23.77;66.34;101190.72;20987530;28;20127;-65
2022/08/14 01:51:12;;;;;;;7.55;4.72;;;;;;;23.59;68.24;101183.91;20980095;28;20051;-65
2022/08/14 02:01:40;;;;;;;9.93;4.27;;;;;;;23.51;68.84;101170.66;20957664;28;20062;-65
2022/08/14 02:12:04;;;;;;;4.43;4.03;;;;;;;23.29;69.96;101167.91;20956858;28;20044;-64
2022/08/14 02:22:29;;;;;;;9.57;5.25;;;;;;;23.07;71.08;101158.84;20955575;28;20647;-64
2022/08/14 02:32:53;;;;;;;10.13;4.78;;;;;;;22.98;71.65;101143.88;20960388;28;20072;-66
2022/08/14 02:43:20;;;;;;;5.22;4.50;;;;;;;22.88;71.56;101132.59;20951031;28;20052;-64
2022/08/14 02:53:45;;;;;;;7.97;4.88;;;;;;;22.59;73.34;101129.66;20959975;28;20131;-64
2022/08/14 03:04:09;;;;;;;6.72;4.93;;;;;;;22.68;71.99;101111.88;20956524;28;20044;-65
2022/08/14 03:14:35;;;;;;;8.02;4.78;;;;;;;22.52;74.05;101107.41;20958630;28;20063;-64
2022/08/14 03:24:56;;;;;;;7.20;4.97;;;;;;;22.13;75.60;101096.75;20953584;28;20686;-64
2022/08/14 03:35:18;;;;;;;9.48;4.28;;;;;;;22.26;75.48;101097.13;20955230;28;20040;-64
2022/08/14 03:45:40;;;;;;;5.78;5.10;;;;;;;22.16;76.25;101085.81;20952169;28;20050;-64
2022/08/14 03:56:13;;;;;;;7.00;4.85;;;;;;;22.16;76.01;101073.38;20951109;28;20413;-64
2022/08/14 04:06:41;;;;;;;9.88;5.35;;;;;;;22.15;75.82;101060.25;20942500;28;20044;-64
2022/08/14 04:17:10;;;;;;;6.22;5.40;;;;;;;21.96;77.52;101047.31;20952814;28;20056;-64
2022/08/14 04:27:34;;;;;;;6.13;5.10;;;;;;;21.90;77.73;101051.47;20949356;28;20056;-63
2022/08/14 04:49:01;;;;;;;9.57;5.43;;;;;;;22.08;77.34;101030.06;20970770;28;20044;-63
2022/08/14 04:59:28;;;;;;;9.45;5.38;;;;;;;21.73;78.69;101023.25;20966853;28;20128;-63
2022/08/14 05:09:50;;;;;;;8.45;5.03;;;;;;;21.77;78.14;101023.75;20966121;28;20166;-62
2022/08/14 05:20:12;;;;;;;8.27;5.32;;;;;;;21.82;77.82;101026.75;20968403;28;20260;-63
2022/08/14 05:30:56;;;;;;;7.68;5.10;;;;;;;21.87;76.80;101021.75;20962918;28;20493;-63
2022/08/14 05:41:18;;;;;;;10.85;5.70;;;;;;;21.72;78.14;101031.38;20967142;28;20405;-63
2022/08/14 05:51:45;;;;;;;5.85;5.22;;;;;;;21.71;79.18;101011.97;20969520;28;20056;-63
2022/08/14 06:02:08;;;;;;;6.43;5.00;;;;;;;21.58;78.92;101021.41;20966896;28;20201;-63
2022/08/14 06:12:31;;;;;;;8.43;5.10;;;;;;;21.85;78.76;101031.69;20963211;28;20039;-63
2022/08/14 06:23:12;;;;;;;8.73;5.03;;;;;;;22.04;77.07;101021.59;20972832;28;20044;-63
2022/08/14 06:33:35;;;;;;;11.40;5.70;;;;;;;22.67;75.12;101015.34;20963967;28;20489;-62
2022/08/14 06:44:16;;;;;;;8.93;5.95;;;;;;;23.15;75.37;101004.50;20977883;28;20045;-63
2022/08/14 06:54:39;;;;;;;6.38;5.07;;;;;;;23.98;70.59;101009.75;20953736;28;20049;-62
2022/08/14 07:15:49;;;;;;;6.28;5.63;;;;;;;24.20;71.54;100994.72;20958505;28;20493;-61
2022/08/14 07:26:15;;;;;;;6.72;5.45;;;;;;;24.79;69.00;101000.72;20980266;28;20044;-62
2022/08/14 07:36:37;;;;;;;8.13;5.38;;;;;;;25.08;66.36;101000.69;20954258;28;20098;-62
2022/08/14 07:47:18;;;;;;;8.45;5.45;;;;;;;25.34;64.39;101001.00;20927946;28;20052;-63
2022/08/14 07:57:42;;;;;;;6.15;5.55;;;;;;;25.59;63.48;101000.44;20934877;28;20045;-63
2022/08/14 08:08:05;;;;;;;6.50;4.55;;;;;;;25.70;65.31;101001.78;20939953;28;20052;-62
2022/08/14 08:18:47;;;;;;;7.45;5.03;;;;;;;26.02;62.03;101001.28;20935153;28;20076;-63
2022/08/14 08:29:08;;;;;;;6.28;4.63;;;;;;;26.33;60.42;100999.06;20937404;28;20041;-63
2022/08/14 08:39:41;;;;;;;7.00;5.07;;;;;;;26.50;60.20;100986.00;20936368;28;20048;-63
2022/08/14 08:50:29;;;;;;;8.98;4.85;;;;;;;26.64;58.87;100966.31;20935285;28;20052;-63
2022/08/14 09:00:53;;;;;;;8.65;5.38;;;;;;;27.04;58.76;100954.78;20942374;28;20548;-63
2022/08/14 09:11:15;;;;;;;8.02;5.00;;;;;;;27.04;59.95;100952.13;20934336;28;20509;-64
2022/08/14 09:21:43;;;;;;;7.45;4.82;;;;;;;27.54;57.34;100933.66;20937509;28;20110;-64
2022/08/14 09:32:06;;;;;;;6.93;5.13;;;;;;;27.54;58.89;100931.00;20950142;28;20056;-64
2022/08/14 09:43:06;;;;;;;6.25;4.90;;;;;;;28.02;55.10;100900.25;20946346;28;20056;-65
2022/08/14 09:53:35;;;;;;;7.03;5.30;;;;;;;28.07;55.38;100892.41;20948979;28;20055;-64
2022/08/14 10:04:20;;;;;;;6.55;4.78;;;;;;;28.47;54.08;100872.47;20951580;28;20053;-65
2022/08/14 10:14:57;;;;;;;5.38;4.88;;;;;;;27.97;56.32;100872.41;20949343;28;20048;-65
2022/08/14 10:25:20;;;;;;;4.72;4.25;;;;;;;28.57;55.02;100867.50;20947737;28;20045;-64
2022/08/14 10:35:43;;;;;;;6.43;4.68;;;;;;;28.79;52.80;100856.25;20931020;28;20141;-65
2022/08/14 10:46:14;;;;;;;5.93;4.80;;;;;;;29.21;53.40;100836.75;20951148;28;20068;-63
2022/08/14 10:57:09;;;;;;;6.93;4.85;;;;;;;29.67;51.96;100819.19;20944731;28;20097;-64
2022/08/14 11:07:31;;;;;;;6.88;4.60;;;;;;;29.65;50.80;100817.78;20943064;28;20602;-65
2022/08/14 11:17:55;;;;;;;8.90;4.65;;;;;;;29.39;51.27;100810.00;20943199;28;20649;-65
2022/08/14 11:28:24;;;;;;;8.50;4.50;;;;;;;30.02;49.28;100811.41;20955821;28;20502;-64
2022/08/14 11:39:05;;;;;;;6.43;4.97;;;;;;;29.96;51.63;100798.88;20945623;28;20041;-64
2022/08/14 11:49:31;;;;;;;7.75;4.88;;;;;;;30.61;48.54;100791.59;20940691;28;20052;-64
2022/08/14 12:00:09;;;;;;;6.25;4.40;;;;;;;30.83;46.82;100763.09;20960214;28;20495;-63
2022/08/14 12:10:36;;;;;;;8.15;4.45;;;;;;;30.76;48.30;100737.34;20962013;28;20092;-64
2022/08/14 12:21:20;;;;;;;5.63;4.05;;;;;;;31.11;46.08;100738.22;20950489;28;20044;-65
2022/08/14 12:31:45;;;;;;;4.20;3.75;;;;;;;31.53;44.29;100713.59;20937484;28;20485;-65
2022/08/14 12:42:13;;;;;;;5.95;4.15;;;;;;;31.32;44.65;100705.28;20935457;28;20044;-65
2022/08/14 12:52:56;;;;;;;12.35;4.30;;;;;;;31.17;42.91;100688.78;20924850;28;20048;-65
2022/08/14 13:03:36;;;;;;;8.07;4.25;;;;;;;30.86;45.61;100665.66;20953717;28;20075;-65
2022/08/14 13:14:02;;;;;;;7.38;4.20;;;;;;;31.07;46.04;100657.03;20968990;28;20044;-65
2022/08/14 13:24:25;;;;;;;7.30;3.78;;;;;;;30.97;44.03;100650.56;20954555;28;20066;-64
2022/08/14 13:34:48;;;;;;;7.50;4.32;;;;;;;31.03;44.06;100612.72;20939841;28;20044;-63
2022/08/14 13:45:13;;;;;;;6.75;3.97;;;;;;;30.77;44.93;100591.66;20955503;28;20041;-63
2022/08/14 13:55:38;;;;;;;6.80;4.20;;;;;;;31.14;43.63;100594.94;20958412;28;20067;-63
2022/08/14 14:06:01;;;;;;;9.43;4.60;;;;;;;31.37;44.56;100587.63;20949414;28;20457;-64
2022/08/14 14:16:25;;;;;;;4.82;4.30;;;;;;;30.99;45.76;100573.03;20960014;28;20055;-65
2022/08/14 14:26:52;;;;;;;5.17;4.40;;;;;;;31.17;44.77;100565.63;20944944;28;20409;-68
2022/08/14 14:37:15;;;;;;;4.63;3.75;;;;;;;31.30;45.58;100559.97;20939428;28;20049;-67
2022/08/14 14:47:36;;;;;;;6.43;4.57;;;;;;;30.83;44.75;100549.50;20937169;28;20409;-66
2022/08/14 14:57:58;;;;;;;6.10;4.55;;;;;;;30.98;44.09;100539.06;20941002;28;20064;-65
2022/08/14 15:08:20;;;;;;;9.05;7.75;;;;;;;30.61;46.88;100538.53;20956008;28;20044;-65
2022/08/14 15:19:03;;;;;;;5.80;4.57;;;;;;;30.91;44.74;100512.25;20929726;28;20417;-64
2022/08/14 15:29:25;;;;;;;6.93;6.07;;;;;;;30.78;46.82;100512.53;20951873;28;20052;-64
2022/08/14 15:39:48;;;;;;;7.35;4.93;;;;;;;30.77;43.88;100489.34;20959314;28;20077;-66
2022/08/14 15:50:12;;;;;;;7.90;5.78;;;;;;;30.83;44.83;100485.69;20933441;28;20468;-66
2022/08/14 16:11:16;;;;;;;8.90;7.20;;;;;;;31.24;44.16;100469.31;20945956;28;20053;-66
2022/08/14 16:21:40;;;;;;;6.80;4.35;;;;;;;31.66;42.89;100457.16;20951113;28;20135;-65
2022/08/14 16:32:22;;;;;;;6.65;4.32;;;;;;;31.32;43.83;100444.66;20934473;28;20651;-65
2022/08/14 16:42:58;;;;;;;5.80;4.05;;;;;;;31.42;44.44;100442.97;20959630;28;20067;-66
2022/08/14 16:53:35;;;;;;;5.75;4.30;;;;;;;32.01;40.22;100425.38;20927739;28;20173;-65
2022/08/14 17:04:02;;;;;;;5.13;3.60;;;;;;;31.41;43.20;100421.66;20926586;28;20064;-66
2022/08/14 17:14:49;;;;;;;5.00;4.50;;;;;;;31.58;40.96;100409.84;20922455;28;20052;-65
2022/08/14 17:25:35;;;;;;;7.32;4.15;;;;;;;31.23;42.68;100408.38;20932578;28;20520;-63
2022/08/14 17:36:24;;;;;;;6.30;4.15;;;;;;;31.20;42.89;100395.38;20932125;28;20052;-63
2022/08/14 17:46:49;;;;;;;15.60;5.55;;;;;;;31.00;44.55;100394.16;20946938;28;20045;-63
2022/08/14 17:57:23;;;;;;;9.45;6.32;;;;;;;31.00;44.03;100392.28;20952343;28;20044;-63
2022/08/14 18:07:49;;;;;;;6.18;4.90;;;;;;;30.58;45.08;100396.31;20959188;28;20117;-62
2022/08/14 18:18:31;;;;;;;6.05;4.60;;;;;;;30.27;44.16;100406.66;20960681;28;20048;-64
2022/08/14 18:28:54;;;;;;;7.65;4.65;;;;;;;29.92;46.99;100405.00;20955883;28;20048;-64
2022/08/14 18:39:31;;;;;;;5.90;4.25;;;;;;;29.58;46.32;100401.22;20956216;28;20040;-64
2022/08/14 18:50:20;;;;;;;7.88;5.15;;;;;;;29.39;47.64;100406.94;20954563;28;20063;-63
2022/08/14 19:00:54;;;;;;;7.10;4.50;;;;;;;29.11;49.33;100409.34;20956632;28;20052;-64
2022/08/14 19:11:31;;;;;;;9.20;5.27;;;;;;;28.88;49.20;100409.28;20958896;28;20044;-64
2022/08/14 19:21:55;;;;;;;9.48;4.43;;;;;;;28.55;50.55;100411.50;20954711;28;20301;-63
2022/08/14 19:32:38;;;;;;;6.43;5.45;;;;;;;28.32;51.32;100401.69;20970842;28;20045;-63
2022/08/14 19:43:01;;;;;;;7.68;4.72;;;;;;;28.14;52.83;100401.63;20956493;28;20086;-64
2022/08/14 19:53:30;;;;;;;6.65;4.88;;;;;;;28.06;53.50;100399.25;20954566;28;20072;-64
2022/08/14 20:03:52;;;;;;;5.88;4.93;;;;;;;28.09;52.77;100398.81;20954664;28;20044;-64
2022/08/14 20:14:24;;;;;;;12.85;6.30;;;;;;;28.00;52.99;100392.09;20949224;28;20131;-64
2022/08/14 20:24:50;;;;;;;6.05;5.22;;;;;;;27.84;53.45;100392.66;20953916;28;20060;-62
2022/08/14 20:35:42;;;;;;;13.48;6.15;;;;;;;27.37;58.98;100390.53;20965799;28;20098;-62
2022/08/14 20:46:13;;;;;;;9.52;5.38;;;;;;;27.38;60.02;100402.88;20966182;28;20513;-61
2022/08/14 20:56:39;;;;;;;6.88;5.30;;;;;;;27.36;55.41;100399.63;20938223;28;20071;-61
2022/08/14 21:07:08;;;;;;;5.72;5.13;;;;;;;27.21;58.61;100390.25;20957365;28;20498;-63
2022/08/14 21:17:50;;;;;;;6.13;5.18;;;;;;;27.19;60.05;100392.31;20948602;28;20052;-62
2022/08/14 21:28:12;;;;;;;12.02;5.93;;;;;;;27.00;57.43;100398.59;20972323;28;20039;-61
2022/08/14 21:38:51;;;;;;;6.03;5.40;;;;;;;27.22;59.22;100397.25;20964346;28;20041;-62
2022/08/14 21:49:16;;;;;;;10.70;6.07;;;;;;;27.00;57.84;100388.69;20965435;28;20057;-63
2022/08/14 21:59:38;;;;;;;6.93;6.10;;;;;;;26.91;56.63;100376.63;20963158;28;20045;-61
2022/08/14 22:10:00;;;;;;;8.77;5.93;;;;;;;26.70;58.34;100365.41;20965178;28;20041;-61
2022/08/14 22:20:27;;;;;;;8.02;5.55;;;;;;;26.62;59.12;100358.47;20964837;28;20097;-62
2022/08/14 22:30:49;;;;;;;7.82;5.60;;;;;;;26.55;59.32;100352.31;20964388;28;20041;-62
2022/08/14 22:41:19;;;;;;;6.77;5.40;;;;;;;26.59;59.29;100339.31;20962845;28;20059;-61
2022/08/14 22:51:55;;;;;;;5.85;5.25;;;;;;;26.65;60.70;100330.44;20962450;28;20052;-63
2022/08/14 23:02:28;;;;;;;5.57;4.90;;;;;;;26.43;61.00;100331.78;20959475;28;20045;-64
2022/08/14 23:12:51;;;;;;;7.72;4.60;;;;;;;26.31;61.65;100321.94;20960527;28;20048;-64
2022/08/14 23:23:16;;;;;;;8.75;4.78;;;;;;;26.09;62.98;100323.25;20957836;28;20840;-63
2022/08/14 23:33:44;;;;;;;11.07;4.80;;;;;;;26.07;63.63;100304.75;20960833;28;20060;-63
2022/08/14 23:44:14;;;;;;;7.82;4.78;;;;;;;25.81;65.01;100298.66;20956936;28;20461;-63
2022/08/14 23:54:35;;;;;;;6.95;4.85;;;;;;;25.92;63.72;100285.47;20960005;28;20927;-61
